sensor_id;sensor_type;location;lat;lon;timestamp;pressure;altitude;pressure_sealevel;temperature;humidity
50852;BME280;43953;45.508;-122.806;2022-11-27T00:00:28;102185.63;;;10.68;65.52
50852;BME280;43953;45.508;-122.806;2022-11-27T00:01:00;102178.38;;;10.69;65.78
50852;BME280;43953;45.508;-122.806;2022-11-27T00:01:34;102172.31;;;10.67;65.64
50852;BME280;43953;45.508;-122.806;2022-11-27T00:02:06;102182.28;;;10.66;65.81
50852;BME280;43953;45.508;-122.806;2022-11-27T00:02:37;102184.13;;;10.66;65.65
50852;BME280;43953;45.508;-122.806;2022-11-27T00:03:10;102179.56;;;10.66;65.40
50852;BME280;43953;45.508;-122.806;2022-11-27T00:03:42;102181.44;;;10.66;65.48
50852;BME280;43953;45.508;-122.806;2022-11-27T00:04:14;102179.56;;;10.66;65.60
50852;BME280;43953;45.508;-122.806;2022-11-27T00:04:46;102179.75;;;10.65;65.66
50852;BME280;43953;45.508;-122.806;2022-11-27T00:05:18;102172.50;;;10.65;65.80
50852;BME280;43953;45.508;-122.806;2022-11-27T00:05:56;102184.13;;;10.66;65.75
50852;BME280;43953;45.508;-122.806;2022-11-27T00:06:29;102179.75;;;10.65;65.74
50852;BME280;43953;45.508;-122.806;2022-11-27T00:07:01;102179.75;;;10.65;65.85
50852;BME280;43953;45.508;-122.806;2022-11-27T00:07:33;102176.19;;;10.64;65.68
50852;BME280;43953;45.508;-122.806;2022-11-27T00:08:04;102178.06;;;10.64;65.62
50852;BME280;43953;45.508;-122.806;2022-11-27T00:08:36;102175.38;;;10.64;65.83
50852;BME280;43953;45.508;-122.806;2022-11-27T00:09:12;102180.75;;;10.64;65.79
50852;BME280;43953;45.508;-122.806;2022-11-27T00:09:44;102179.09;;;10.63;65.84
50852;BME280;43953;45.508;-122.806;2022-11-27T00:10:16;102184.47;;;10.63;65.48
50852;BME280;43953;45.508;-122.806;2022-11-27T00:10:48;102180.13;;;10.62;65.63
50852;BME280;43953;45.508;-122.806;2022-11-27T00:11:22;102177.41;;;10.62;65.84
50852;BME280;43953;45.508;-122.806;2022-11-27T00:11:54;102175.72;;;10.61;65.50
50852;BME280;43953;45.508;-122.806;2022-11-27T00:12:26;102176.75;;;10.60;65.51
50852;BME280;43953;45.508;-122.806;2022-11-27T00:12:58;102170.53;;;10.59;65.55
50852;BME280;43953;45.508;-122.806;2022-11-27T00:13:29;102165.97;;;10.60;65.73
50852;BME280;43953;45.508;-122.806;2022-11-27T00:14:01;102167.81;;;10.59;65.73
50852;BME280;43953;45.508;-122.806;2022-11-27T00:14:33;102165.97;;;10.60;65.94
50852;BME280;43953;45.508;-122.806;2022-11-27T00:15:05;102166.97;;;10.59;65.71
50852;BME280;43953;45.508;-122.806;2022-11-27T00:15:37;102164.28;;;10.59;65.91
50852;BME280;43953;45.508;-122.806;2022-11-27T00:16:08;102164.28;;;10.59;65.54
50852;BME280;43953;45.508;-122.806;2022-11-27T00:16:41;102160.94;;;10.57;65.97
50852;BME280;43953;45.508;-122.806;2022-11-27T00:17:12;102156.72;;;10.54;65.92
50852;BME280;43953;45.508;-122.806;2022-11-27T00:17:44;102158.41;;;10.55;65.63
50852;BME280;43953;45.508;-122.806;2022-11-27T00:18:16;102151.34;;;10.54;65.58
50852;BME280;43953;45.508;-122.806;2022-11-27T00:18:48;102153.19;;;10.54;65.67
50852;BME280;43953;45.508;-122.806;2022-11-27T00:19:20;102156.88;;;10.53;65.60
50852;BME280;43953;45.508;-122.806;2022-11-27T00:19:51;102158.75;;;10.52;65.66
50852;BME280;43953;45.508;-122.806;2022-11-27T00:20:23;102150.84;;;10.51;65.89
50852;BME280;43953;45.508;-122.806;2022-11-27T00:20:55;102148.16;;;10.51;65.74
50852;BME280;43953;45.508;-122.806;2022-11-27T00:21:31;102153.53;;;10.51;65.79
50852;BME280;43953;45.508;-122.806;2022-11-27T00:22:03;102140.09;;;10.51;66.03
50852;BME280;43953;45.508;-122.806;2022-11-27T00:22:34;102140.72;;;10.53;66.20
50852;BME280;43953;45.508;-122.806;2022-11-27T00:23:06;102143.41;;;10.53;65.74
50852;BME280;43953;45.508;-122.806;2022-11-27T00:23:39;102139.88;;;10.52;65.97
50852;BME280;43953;45.508;-122.806;2022-11-27T00:24:11;102139.88;;;10.52;65.67
50852;BME280;43953;45.508;-122.806;2022-11-27T00:24:43;102142.59;;;10.52;65.90
50852;BME280;43953;45.508;-122.806;2022-11-27T00:25:15;102138.22;;;10.51;66.08
50852;BME280;43953;45.508;-122.806;2022-11-27T00:25:51;102136.56;;;10.50;66.07
50852;BME280;43953;45.508;-122.806;2022-11-27T00:26:24;102140.09;;;10.51;66.10
50852;BME280;43953;45.508;-122.806;2022-11-27T00:26:56;102149.16;;;10.50;65.87
50852;BME280;43953;45.508;-122.806;2022-11-27T00:27:27;102149.16;;;10.50;65.88
50852;BME280;43953;45.508;-122.806;2022-11-27T00:27:59;102142.09;;;10.48;65.98
50852;BME280;43953;45.508;-122.806;2022-11-27T00:28:31;102150.19;;;10.48;65.71
50852;BME280;43953;45.508;-122.806;2022-11-27T00:29:04;102150.38;;;10.47;65.79
50852;BME280;43953;45.508;-122.806;2022-11-27T00:29:36;102151.19;;;10.47;66.05
50852;BME280;43953;45.508;-122.806;2022-11-27T00:30:08;102145.81;;;10.47;65.85
50852;BME280;43953;45.508;-122.806;2022-11-27T00:30:40;102149.50;;;10.46;65.92
50852;BME280;43953;45.508;-122.806;2022-11-27T00:31:17;102148.50;;;10.47;65.85
50852;BME280;43953;45.508;-122.806;2022-11-27T00:31:49;102148.50;;;10.47;66.29
50852;BME280;43953;45.508;-122.806;2022-11-27T00:32:21;102148.31;;;10.49;65.86
50852;BME280;43953;45.508;-122.806;2022-11-27T00:32:53;102144.97;;;10.47;66.08
50852;BME280;43953;45.508;-122.806;2022-11-27T00:33:24;102148.31;;;10.49;66.17
50852;BME280;43953;45.508;-122.806;2022-11-27T00:33:58;102142.94;;;10.49;66.06
50852;BME280;43953;45.508;-122.806;2022-11-27T00:34:30;102142.94;;;10.49;65.98
50852;BME280;43953;45.508;-122.806;2022-11-27T00:35:02;102140.44;;;10.47;65.97
50852;BME280;43953;45.508;-122.806;2022-11-27T00:35:34;102142.09;;;10.48;66.06
50852;BME280;43953;45.508;-122.806;2022-11-27T00:36:07;102145.81;;;10.47;66.10
50852;BME280;43953;45.508;-122.806;2022-11-27T00:36:39;102140.44;;;10.47;66.18
50852;BME280;43953;45.508;-122.806;2022-11-27T00:37:10;102133.34;;;10.46;66.12
50852;BME280;43953;45.508;-122.806;2022-11-27T00:37:45;102146.16;;;10.44;66.13
50852;BME280;43953;45.508;-122.806;2022-11-27T00:38:16;102147.00;;;10.45;66.08
50852;BME280;43953;45.508;-122.806;2022-11-27T00:38:48;102151.53;;;10.44;66.06
50852;BME280;43953;45.508;-122.806;2022-11-27T00:39:20;102143.63;;;10.43;66.37
50852;BME280;43953;45.508;-122.806;2022-11-27T00:39:52;102135.75;;;10.41;66.16
50852;BME280;43953;45.508;-122.806;2022-11-27T00:40:23;102139.91;;;10.44;66.03
50852;BME280;43953;45.508;-122.806;2022-11-27T00:41:08;102140.94;;;10.43;66.18
50852;BME280;43953;45.508;-122.806;2022-11-27T00:41:39;102143.63;;;10.43;66.28
50852;BME280;43953;45.508;-122.806;2022-11-27T00:42:11;102149.00;;;10.43;66.20
50852;BME280;43953;45.508;-122.806;2022-11-27T00:42:43;102145.63;;;10.41;66.33
50852;BME280;43953;45.508;-122.806;2022-11-27T00:43:15;102148.34;;;10.41;66.16
50852;BME280;43953;45.508;-122.806;2022-11-27T00:43:47;102145.63;;;10.41;66.13
50852;BME280;43953;45.508;-122.806;2022-11-27T00:44:19;102151.22;;;10.39;66.23
50852;BME280;43953;45.508;-122.806;2022-11-27T00:44:51;102148.53;;;10.39;66.31
50852;BME280;43953;45.508;-122.806;2022-11-27T00:45:23;102141.47;;;10.38;66.43
50852;BME280;43953;45.508;-122.806;2022-11-27T00:45:54;102151.38;;;10.38;66.05
50852;BME280;43953;45.508;-122.806;2022-11-27T00:46:29;102150.53;;;10.37;66.36
50852;BME280;43953;45.508;-122.806;2022-11-27T00:47:00;102147.00;;;10.37;66.31
50852;BME280;43953;45.508;-122.806;2022-11-27T00:47:32;102147.69;;;10.39;66.62
50852;BME280;43953;45.508;-122.806;2022-11-27T00:48:04;102150.38;;;10.39;66.55
50852;BME280;43953;45.508;-122.806;2022-11-27T00:48:36;102143.97;;;10.40;66.07
50852;BME280;43953;45.508;-122.806;2022-11-27T00:49:11;102149.34;;;10.40;66.33
50852;BME280;43953;45.508;-122.806;2022-11-27T00:49:43;102149.34;;;10.40;66.16
50852;BME280;43953;45.508;-122.806;2022-11-27T00:50:15;102148.53;;;10.39;66.38
50852;BME280;43953;45.508;-122.806;2022-11-27T00:50:47;102155.56;;;10.40;66.16
50852;BME280;43953;45.508;-122.806;2022-11-27T00:51:20;102151.72;;;10.43;66.49
50852;BME280;43953;45.508;-122.806;2022-11-27T00:51:52;102150.88;;;10.42;66.11
50852;BME280;43953;45.508;-122.806;2022-11-27T00:52:23;102149.84;;;10.43;66.51
50852;BME280;43953;45.508;-122.806;2022-11-27T00:52:55;102149.19;;;10.41;66.46
50852;BME280;43953;45.508;-122.806;2022-11-27T00:53:27;102153.72;;;10.41;66.23
50852;BME280;43953;45.508;-122.806;2022-11-27T00:54:00;102157.28;;;10.41;66.17
50852;BME280;43953;45.508;-122.806;2022-11-27T00:54:32;102157.63;;;10.38;66.01
50852;BME280;43953;45.508;-122.806;2022-11-27T00:55:04;102157.63;;;10.38;66.41
50852;BME280;43953;45.508;-122.806;2022-11-27T00:55:36;102150.53;;;10.37;66.53
50852;BME280;43953;45.508;-122.806;2022-11-27T00:56:09;102150.53;;;10.37;66.14
50852;BME280;43953;45.508;-122.806;2022-11-27T00:56:44;102153.22;;;10.37;66.15
50852;BME280;43953;45.508;-122.806;2022-11-27T00:57:16;102153.22;;;10.37;66.25
50852;BME280;43953;45.508;-122.806;2022-11-27T00:57:48;102153.41;;;10.36;66.52
50852;BME280;43953;45.508;-122.806;2022-11-27T00:58:20;102148.88;;;10.36;66.44
50852;BME280;43953;45.508;-122.806;2022-11-27T00:58:52;102157.09;;;10.35;66.14
50852;BME280;43953;45.508;-122.806;2022-11-27T00:59:24;102149.22;;;10.33;66.22
50852;BME280;43953;45.508;-122.806;2022-11-27T00:59:56;102150.88;;;10.34;66.44
50852;BME280;43953;45.508;-122.806;2022-11-27T01:00:27;102144.50;;;10.35;66.50
50852;BME280;43953;45.508;-122.806;2022-11-27T01:01:01;102146.34;;;10.35;66.14
50852;BME280;43953;45.508;-122.806;2022-11-27T01:01:37;102150.88;;;10.34;66.44
50852;BME280;43953;45.508;-122.806;2022-11-27T01:02:09;102154.59;;;10.33;66.16
50852;BME280;43953;45.508;-122.806;2022-11-27T01:02:41;102154.59;;;10.33;66.49
50852;BME280;43953;45.508;-122.806;2022-11-27T01:03:13;102149.22;;;10.33;66.09
50852;BME280;43953;45.508;-122.806;2022-11-27T01:03:45;102152.91;;;10.32;66.28
50852;BME280;43953;45.508;-122.806;2022-11-27T01:04:17;102149.38;;;10.32;66.32
50852;BME280;43953;45.508;-122.806;2022-11-27T01:04:49;102151.22;;;10.31;66.46
50852;BME280;43953;45.508;-122.806;2022-11-27T01:05:21;102152.06;;;10.32;66.19
50852;BME280;43953;45.508;-122.806;2022-11-27T01:05:53;102150.22;;;10.32;66.49
50852;BME280;43953;45.508;-122.806;2022-11-27T01:06:25;102154.75;;;10.32;66.53
50852;BME280;43953;45.508;-122.806;2022-11-27T01:06:58;102147.69;;;10.31;66.50
50852;BME280;43953;45.508;-122.806;2022-11-27T01:07:29;102145.16;;;10.29;66.27
50852;BME280;43953;45.508;-122.806;2022-11-27T01:08:01;102140.66;;;10.30;66.43
50852;BME280;43953;45.508;-122.806;2022-11-27T01:08:33;102146.19;;;10.28;66.38
50852;BME280;43953;45.508;-122.806;2022-11-27T01:09:05;102141.47;;;10.30;66.43
50852;BME280;43953;45.508;-122.806;2022-11-27T01:09:37;102146.88;;;10.30;66.49
50852;BME280;43953;45.508;-122.806;2022-11-27T01:10:09;102147.03;;;10.29;66.61
50852;BME280;43953;45.508;-122.806;2022-11-27T01:10:52;102136.25;;;10.29;66.40
50852;BME280;43953;45.508;-122.806;2022-11-27T01:11:27;102141.84;;;10.27;66.48
50852;BME280;43953;45.508;-122.806;2022-11-27T01:11:59;102130.22;;;10.27;66.59
50852;BME280;43953;45.508;-122.806;2022-11-27T01:12:31;102131.19;;;10.25;66.63
50852;BME280;43953;45.508;-122.806;2022-11-27T01:13:03;102129.22;;;10.28;66.69
50852;BME280;43953;45.508;-122.806;2022-11-27T01:13:35;102128.38;;;10.27;66.44
50852;BME280;43953;45.508;-122.806;2022-11-27T01:14:14;102133.75;;;10.27;66.63
50852;BME280;43953;45.508;-122.806;2022-11-27T01:14:46;102130.03;;;10.28;66.50
50852;BME280;43953;45.508;-122.806;2022-11-27T01:15:18;102126.31;;;10.29;66.28
50852;BME280;43953;45.508;-122.806;2022-11-27T01:16:09;102124.66;;;10.28;66.45
50852;BME280;43953;45.508;-122.806;2022-11-27T01:16:42;102130.88;;;10.29;66.72
50852;BME280;43953;45.508;-122.806;2022-11-27T01:17:14;102126.31;;;10.29;66.54
50852;BME280;43953;45.508;-122.806;2022-11-27T01:17:45;102124.66;;;10.28;66.37
50852;BME280;43953;45.508;-122.806;2022-11-27T01:18:17;102130.03;;;10.28;66.46
50852;BME280;43953;45.508;-122.806;2022-11-27T01:18:50;102124.66;;;10.28;66.45
50852;BME280;43953;45.508;-122.806;2022-11-27T01:19:22;102122.97;;;10.27;66.77
50852;BME280;43953;45.508;-122.806;2022-11-27T01:19:54;102126.50;;;10.28;66.70
50852;BME280;43953;45.508;-122.806;2022-11-27T01:20:25;102125.69;;;10.27;66.58
50852;BME280;43953;45.508;-122.806;2022-11-27T01:20:57;102122.16;;;10.27;66.56
50852;BME280;43953;45.508;-122.806;2022-11-27T01:21:32;102110.50;;;10.26;66.79
50852;BME280;43953;45.508;-122.806;2022-11-27T01:22:04;102117.59;;;10.27;66.47
50852;BME280;43953;45.508;-122.806;2022-11-27T01:22:36;102112.22;;;10.27;66.70
50852;BME280;43953;45.508;-122.806;2022-11-27T01:23:08;102106.84;;;10.27;66.70
50852;BME280;43953;45.508;-122.806;2022-11-27T01:23:40;102112.22;;;10.27;66.49
50852;BME280;43953;45.508;-122.806;2022-11-27T01:24:13;102112.88;;;10.29;66.21
50852;BME280;43953;45.508;-122.806;2022-11-27T01:24:46;102110.16;;;10.29;66.54
50852;BME280;43953;45.508;-122.806;2022-11-27T01:25:17;102099.41;;;10.29;66.32
50852;BME280;43953;45.508;-122.806;2022-11-27T01:25:49;102106.50;;;10.30;66.54
50852;BME280;43953;45.508;-122.806;2022-11-27T01:26:23;102099.25;;;10.31;66.29
50852;BME280;43953;45.508;-122.806;2022-11-27T01:26:55;102103.78;;;10.30;66.34
50852;BME280;43953;45.508;-122.806;2022-11-27T01:27:27;102098.41;;;10.30;66.17
50852;BME280;43953;45.508;-122.806;2022-11-27T01:27:59;102083.94;;;10.31;66.63
50852;BME280;43953;45.508;-122.806;2022-11-27T01:28:31;102102.78;;;10.31;66.54
50852;BME280;43953;45.508;-122.806;2022-11-27T01:29:03;102092.00;;;10.31;66.20
50852;BME280;43953;45.508;-122.806;2022-11-27T01:29:35;102100.91;;;10.32;66.28
50852;BME280;43953;45.508;-122.806;2022-11-27T01:30:07;102090.16;;;10.32;66.40
50852;BME280;43953;45.508;-122.806;2022-11-27T01:30:39;102094.69;;;10.31;66.52
50852;BME280;43953;45.508;-122.806;2022-11-27T01:31:16;102103.59;;;10.32;66.17
50852;BME280;43953;45.508;-122.806;2022-11-27T01:31:48;102109.81;;;10.32;66.57
50852;BME280;43953;45.508;-122.806;2022-11-27T01:32:20;102106.31;;;10.32;66.19
50852;BME280;43953;45.508;-122.806;2022-11-27T01:32:51;102100.91;;;10.32;66.49
50852;BME280;43953;45.508;-122.806;2022-11-27T01:33:23;102101.09;;;10.30;66.49
50852;BME280;43953;45.508;-122.806;2022-11-27T01:33:58;102105.47;;;10.31;66.51
50852;BME280;43953;45.508;-122.806;2022-11-27T01:34:30;102099.25;;;10.31;66.40
50852;BME280;43953;45.508;-122.806;2022-11-27T01:35:02;102094.03;;;10.29;66.24
50852;BME280;43953;45.508;-122.806;2022-11-27T01:35:34;102091.31;;;10.29;66.32
50852;BME280;43953;45.508;-122.806;2022-11-27T01:36:06;102101.25;;;10.29;66.67
50852;BME280;43953;45.508;-122.806;2022-11-27T01:36:38;102096.91;;;10.28;66.41
50852;BME280;43953;45.508;-122.806;2022-11-27T01:37:10;102106.00;;;10.27;66.31
50852;BME280;43953;45.508;-122.806;2022-11-27T01:37:42;102106.84;;;10.27;66.78
50852;BME280;43953;45.508;-122.806;2022-11-27T01:38:14;102107.66;;;10.28;66.62
50852;BME280;43953;45.508;-122.806;2022-11-27T01:38:45;102108.50;;;10.28;66.39
50852;BME280;43953;45.508;-122.806;2022-11-27T01:39:19;102110.50;;;10.26;66.75
50852;BME280;43953;45.508;-122.806;2022-11-27T01:39:50;102109.53;;;10.27;66.73
50852;BME280;43953;45.508;-122.806;2022-11-27T01:40:23;102108.50;;;10.28;66.56
50852;BME280;43953;45.508;-122.806;2022-11-27T01:41:03;102111.19;;;10.28;66.71
50852;BME280;43953;45.508;-122.806;2022-11-27T01:41:36;102107.66;;;10.28;66.69
50852;BME280;43953;45.508;-122.806;2022-11-27T01:42:11;102103.94;;;10.29;66.67
50852;BME280;43953;45.508;-122.806;2022-11-27T01:42:43;102097.03;;;10.26;66.38
50852;BME280;43953;45.508;-122.806;2022-11-27T01:43:15;102105.09;;;10.26;66.56
50852;BME280;43953;45.508;-122.806;2022-11-27T01:43:48;102105.09;;;10.26;66.51
50852;BME280;43953;45.508;-122.806;2022-11-27T01:44:55;102096.38;;;10.24;66.74
50852;BME280;43953;45.508;-122.806;2022-11-27T01:45:27;102089.28;;;10.23;66.49
50852;BME280;43953;45.508;-122.806;2022-11-27T01:45:58;102100.94;;;10.23;66.67
50852;BME280;43953;45.508;-122.806;2022-11-27T01:47:14;102096.72;;;10.21;66.86
50852;BME280;43953;45.508;-122.806;2022-11-27T01:47:56;102097.56;;;10.21;66.76
50852;BME280;43953;45.508;-122.806;2022-11-27T01:48:28;102099.41;;;10.21;66.85
50852;BME280;43953;45.508;-122.806;2022-11-27T01:49:37;102088.81;;;10.19;66.74
50852;BME280;43953;45.508;-122.806;2022-11-27T01:50:39;102096.22;;;10.17;66.81
50852;BME280;43953;45.508;-122.806;2022-11-27T01:51:11;102090.00;;;10.17;67.02
50852;BME280;43953;45.508;-122.806;2022-11-27T01:51:53;102083.63;;;10.18;67.18
50852;BME280;43953;45.508;-122.806;2022-11-27T01:52:31;102083.63;;;10.18;67.03
50852;BME280;43953;45.508;-122.806;2022-11-27T01:53:15;102082.75;;;10.17;67.11
50852;BME280;43953;45.508;-122.806;2022-11-27T01:53:48;102078.41;;;10.16;67.17
50852;BME280;43953;45.508;-122.806;2022-11-27T01:54:25;102079.22;;;10.17;66.80
50852;BME280;43953;45.508;-122.806;2022-11-27T01:56:04;102084.13;;;10.13;66.89
50852;BME280;43953;45.508;-122.806;2022-11-27T01:56:38;102084.97;;;10.14;66.91
50852;BME280;43953;45.508;-122.806;2022-11-27T01:57:23;102086.81;;;10.13;67.22
50852;BME280;43953;45.508;-122.806;2022-11-27T01:58:03;102085.97;;;10.13;67.32
50852;BME280;43953;45.508;-122.806;2022-11-27T01:58:36;102081.63;;;10.12;67.38
50852;BME280;43953;45.508;-122.806;2022-11-27T01:59:08;102092.88;;;10.15;66.91
50852;BME280;43953;45.508;-122.806;2022-11-27T01:59:41;102077.72;;;10.14;67.03
50852;BME280;43953;45.508;-122.806;2022-11-27T02:00:14;102084.97;;;10.14;67.11
50852;BME280;43953;45.508;-122.806;2022-11-27T02:00:47;102076.03;;;10.13;67.36
50852;BME280;43953;45.508;-122.806;2022-11-27T02:01:18;102077.91;;;10.13;67.24
50852;BME280;43953;45.508;-122.806;2022-11-27T02:01:50;102076.22;;;10.12;67.06
50852;BME280;43953;45.508;-122.806;2022-11-27T02:02:22;102083.28;;;10.13;67.22
50852;BME280;43953;45.508;-122.806;2022-11-27T02:02:54;102083.28;;;10.13;67.12
50852;BME280;43953;45.508;-122.806;2022-11-27T02:03:26;102090.34;;;10.14;67.24
50852;BME280;43953;45.508;-122.806;2022-11-27T02:04:00;102084.97;;;10.14;67.07
50852;BME280;43953;45.508;-122.806;2022-11-27T02:04:32;102077.91;;;10.13;67.04
50852;BME280;43953;45.508;-122.806;2022-11-27T02:05:04;102079.56;;;10.14;67.17
50852;BME280;43953;45.508;-122.806;2022-11-27T02:05:36;102076.72;;;10.15;67.16
50852;BME280;43953;45.508;-122.806;2022-11-27T02:06:12;102080.25;;;10.16;66.93
50852;BME280;43953;45.508;-122.806;2022-11-27T02:06:45;102077.56;;;10.16;67.12
50852;BME280;43953;45.508;-122.806;2022-11-27T02:07:16;102086.66;;;10.15;67.15
50852;BME280;43953;45.508;-122.806;2022-11-27T02:07:51;102082.09;;;10.15;66.95
50852;BME280;43953;45.508;-122.806;2022-11-27T02:08:23;102073.19;;;10.15;66.97
50852;BME280;43953;45.508;-122.806;2022-11-27T02:08:55;102079.22;;;10.17;66.96
50852;BME280;43953;45.508;-122.806;2022-11-27T02:09:28;102073.00;;;10.16;66.87
50852;BME280;43953;45.508;-122.806;2022-11-27T02:10:00;102073.00;;;10.16;67.28
50852;BME280;43953;45.508;-122.806;2022-11-27T02:11:02;102068.66;;;10.15;67.15
50852;BME280;43953;45.508;-122.806;2022-11-27T02:12:29;102064.25;;;10.14;67.02
50852;BME280;43953;45.508;-122.806;2022-11-27T02:13:08;102061.56;;;10.14;67.06
50852;BME280;43953;45.508;-122.806;2022-11-27T02:13:43;102058.72;;;10.16;67.22
50852;BME280;43953;45.508;-122.806;2022-11-27T02:16:01;102049.81;;;10.15;67.04
50852;BME280;43953;45.508;-122.806;2022-11-27T02:18:01;102034.84;;;10.13;67.27
50852;BME280;43953;45.508;-122.806;2022-11-27T02:20:02;102015.31;;;10.11;67.13
50852;BME280;43953;45.508;-122.806;2022-11-27T02:22:07;102025.25;;;10.10;67.02
50852;BME280;43953;45.508;-122.806;2022-11-27T02:22:51;102016.50;;;10.08;67.43
50852;BME280;43953;45.508;-122.806;2022-11-27T02:26:21;102004.25;;;10.06;67.28
50852;BME280;43953;45.508;-122.806;2022-11-27T02:27:51;101996.16;;;10.06;67.41
50852;BME280;43953;45.508;-122.806;2022-11-27T02:28:59;101989.13;;;10.05;67.18
50852;BME280;43953;45.508;-122.806;2022-11-27T02:29:33;101980.38;;;10.02;67.59
50852;BME280;43953;45.508;-122.806;2022-11-27T02:30:07;101977.53;;;10.04;67.18
50852;BME280;43953;45.508;-122.806;2022-11-27T02:30:45;101971.31;;;10.03;67.28
50852;BME280;43953;45.508;-122.806;2022-11-27T02:32:39;101963.59;;;10.00;67.53
50852;BME280;43953;45.508;-122.806;2022-11-27T02:33:18;101975.00;;;10.02;67.64
50852;BME280;43953;45.508;-122.806;2022-11-27T02:33:54;101968.78;;;10.02;67.40
50852;BME280;43953;45.508;-122.806;2022-11-27T02:34:46;101975.00;;;10.02;67.40
50852;BME280;43953;45.508;-122.806;2022-11-27T02:35:22;101973.31;;;10.01;67.31
50852;BME280;43953;45.508;-122.806;2022-11-27T02:36:06;101977.69;;;10.02;67.60
50852;BME280;43953;45.508;-122.806;2022-11-27T02:36:42;101975.00;;;10.02;67.43
50852;BME280;43953;45.508;-122.806;2022-11-27T02:37:58;101974.81;;;10.04;67.60
50852;BME280;43953;45.508;-122.806;2022-11-27T02:38:38;101975.84;;;10.03;67.29
50852;BME280;43953;45.508;-122.806;2022-11-27T02:39:15;101982.91;;;10.04;67.42
50852;BME280;43953;45.508;-122.806;2022-11-27T02:40:22;101984.09;;;10.01;67.18
50852;BME280;43953;45.508;-122.806;2022-11-27T02:41:16;101990.50;;;10.00;67.40
50852;BME280;43953;45.508;-122.806;2022-11-27T02:41:56;102002.91;;;10.01;67.34
50852;BME280;43953;45.508;-122.806;2022-11-27T02:42:38;102001.06;;;10.02;67.19
50852;BME280;43953;45.508;-122.806;2022-11-27T02:43:46;102005.59;;;10.01;67.18
50852;BME280;43953;45.508;-122.806;2022-11-27T02:44:17;102010.16;;;10.01;67.10
50852;BME280;43953;45.508;-122.806;2022-11-27T02:45:06;102015.53;;;10.01;67.46
50852;BME280;43953;45.508;-122.806;2022-11-27T02:45:43;102010.31;;;9.99;67.24
50852;BME280;43953;45.508;-122.806;2022-11-27T02:46:17;102009.31;;;10.00;67.21
50852;BME280;43953;45.508;-122.806;2022-11-27T02:46:49;102011.00;;;10.01;67.14
50852;BME280;43953;45.508;-122.806;2022-11-27T02:47:22;102008.16;;;10.03;67.10
50852;BME280;43953;45.508;-122.806;2022-11-27T02:47:55;102012.66;;;10.02;66.85
50852;BME280;43953;45.508;-122.806;2022-11-27T02:48:32;102004.78;;;10.01;66.89
50852;BME280;43953;45.508;-122.806;2022-11-27T02:49:08;102015.53;;;10.01;67.14
50852;BME280;43953;45.508;-122.806;2022-11-27T02:49:43;102012.66;;;10.02;67.27
50852;BME280;43953;45.508;-122.806;2022-11-27T02:50:19;102009.13;;;10.02;67.15
50852;BME280;43953;45.508;-122.806;2022-11-27T02:50:53;102005.59;;;10.01;67.29
50852;BME280;43953;45.508;-122.806;2022-11-27T02:51:37;102002.91;;;10.01;66.87
50852;BME280;43953;45.508;-122.806;2022-11-27T02:52:11;102001.06;;;10.02;67.14
50852;BME280;43953;45.508;-122.806;2022-11-27T02:52:44;101996.69;;;10.01;67.14
50852;BME280;43953;45.508;-122.806;2022-11-27T02:53:39;101999.56;;;9.99;67.05
50852;BME280;43953;45.508;-122.806;2022-11-27T02:54:27;102003.28;;;9.98;66.94
50852;BME280;43953;45.508;-122.806;2022-11-27T02:55:04;102003.28;;;9.98;66.87
50852;BME280;43953;45.508;-122.806;2022-11-27T02:55:38;102010.50;;;9.98;66.75
50852;BME280;43953;45.508;-122.806;2022-11-27T02:56:15;102005.13;;;9.98;67.08
50852;BME280;43953;45.508;-122.806;2022-11-27T02:56:49;102008.66;;;9.98;66.89
50852;BME280;43953;45.508;-122.806;2022-11-27T02:57:23;102001.25;;;10.00;66.96
50852;BME280;43953;45.508;-122.806;2022-11-27T02:57:59;102002.25;;;9.99;66.92
50852;BME280;43953;45.508;-122.806;2022-11-27T02:58:33;102007.63;;;9.99;67.17
50852;BME280;43953;45.508;-122.806;2022-11-27T02:59:09;102013.00;;;9.99;67.09
50852;BME280;43953;45.508;-122.806;2022-11-27T02:59:43;102007.63;;;9.99;67.02
50852;BME280;43953;45.508;-122.806;2022-11-27T03:00:16;102003.09;;;10.00;66.82
50852;BME280;43953;45.508;-122.806;2022-11-27T03:00:49;101998.56;;;10.00;66.80
50852;BME280;43953;45.508;-122.806;2022-11-27T03:01:22;101994.84;;;10.01;66.87
50852;BME280;43953;45.508;-122.806;2022-11-27T03:02:03;101997.53;;;10.01;66.94
50852;BME280;43953;45.508;-122.806;2022-11-27T03:02:42;101988.78;;;9.99;66.74
50852;BME280;43953;45.508;-122.806;2022-11-27T03:03:20;101989.81;;;9.98;67.10
50852;BME280;43953;45.508;-122.806;2022-11-27T03:03:56;101988.78;;;9.99;67.09
50852;BME280;43953;45.508;-122.806;2022-11-27T03:04:41;101992.34;;;10.00;67.24
50852;BME280;43953;45.508;-122.806;2022-11-27T03:05:17;101993.19;;;10.00;66.82
50852;BME280;43953;45.508;-122.806;2022-11-27T03:05:53;101993.19;;;10.00;67.17
50852;BME280;43953;45.508;-122.806;2022-11-27T03:06:35;101991.47;;;9.99;67.02
50852;BME280;43953;45.508;-122.806;2022-11-27T03:07:13;101987.78;;;10.00;67.04
50852;BME280;43953;45.508;-122.806;2022-11-27T03:07:58;101992.16;;;10.01;66.98
50852;BME280;43953;45.508;-122.806;2022-11-27T03:08:38;101993.00;;;10.02;66.75
50852;BME280;43953;45.508;-122.806;2022-11-27T03:09:48;101991.13;;;10.02;66.84